Terminal Aerodrome Forecast
Issued by NWS New Orleans/Baton Rouge, LA

Home | Current Version | Previous Version | Text Only | Print | Product List | Glossary On
Versions: 1 2 3 4 5 6 7 8 9 10 11 12 13 14 15 16 17
000
FTUS44 KLIX 281729
TAFBTR
TAF
KBTR 281729Z 2818/2918 19007KT P6SM BKN035
      TEMPO 2818/2822 VRB30KT 2SM TSRA BKN020CB
     FM282300 VRB05KT P6SM SCT045 BKN130
     FM290600 VRB03KT P6SM BKN020
     FM291500 15005KT P6SM BKN030 PROB30 2915/2918 3SM -TSRA
      BKN020CB=

USA.gov is the U.S. government's official web portal to all federal, state and local government web resources and services.